createdAt,value
2022-09-14T00:10:05.539Z,12.64
2022-09-14T00:20:12.335Z,12.45
2022-09-14T00:30:18.152Z,12.32
2022-09-14T00:40:23.843Z,12.25
2022-09-14T00:50:29.641Z,12.33
2022-09-14T01:00:35.447Z,12.55
2022-09-14T01:10:54.199Z,12.59
2022-09-14T01:21:05.028Z,12.64
2022-09-14T01:31:18.484Z,12.67
2022-09-14T01:41:30.214Z,12.69
2022-09-14T01:51:40.325Z,12.71
2022-09-14T02:01:53.212Z,12.67
2022-09-14T02:12:00.906Z,12.41
2022-09-14T02:22:06.746Z,12.14
2022-09-14T02:32:22.337Z,12.23
2022-09-14T02:42:40.648Z,12.35
2022-09-14T02:52:53.523Z,12.44
2022-09-14T03:02:59.580Z,12.36
2022-09-14T03:13:05.846Z,12.10
2022-09-14T03:23:12.138Z,11.90
2022-09-14T03:33:17.987Z,11.72
2022-09-14T03:43:23.597Z,11.57
2022-09-14T03:53:29.266Z,11.43
2022-09-14T04:03:35.694Z,11.55
2022-09-14T04:13:41.908Z,11.79
2022-09-14T04:34:14.769Z,12.29
2022-09-14T04:44:20.577Z,12.54
2022-09-14T04:54:26.120Z,12.83
2022-09-14T05:04:31.862Z,13.11
2022-09-14T05:14:37.683Z,13.38
2022-09-14T05:24:43.381Z,13.64
2022-09-14T05:34:49.004Z,13.82
2022-09-14T05:44:54.721Z,13.96
2022-09-14T05:55:00.510Z,14.09
2022-09-14T06:05:06.826Z,14.39
2022-09-14T06:15:13.530Z,14.83
2022-09-14T06:25:19.125Z,15.22
2022-09-14T06:35:24.735Z,16.04
2022-09-14T06:45:31.223Z,17.43
2022-09-14T06:55:36.905Z,18.38
2022-09-14T07:05:42.571Z,19.80
2022-09-14T07:15:52.579Z,23.62
2022-09-14T07:26:05.187Z,26.77
2022-09-14T07:36:13.116Z,31.66
2022-09-14T07:46:19.130Z,34.39
2022-09-14T07:56:25.939Z,34.84
2022-09-14T08:06:32.105Z,35.08
2022-09-14T08:16:38.895Z,37.44
2022-09-14T08:26:44.759Z,36.97
2022-09-14T08:36:51.041Z,34.34
2022-09-14T08:47:02.943Z,32.67
2022-09-14T08:57:16.882Z,29.01
2022-09-14T09:07:32.754Z,25.95
2022-09-14T09:17:43.644Z,25.17
2022-09-14T09:27:49.450Z,24.87
2022-09-14T09:37:55.181Z,24.40
2022-09-14T09:48:09.511Z,23.59
2022-09-14T09:58:29.380Z,23.77
2022-09-14T10:08:40.755Z,23.52
2022-09-14T10:18:49.591Z,22.99
2022-09-14T10:28:55.818Z,22.26
2022-09-14T10:39:16.231Z,21.77
2022-09-14T10:49:38.008Z,21.47
2022-09-14T10:59:53.610Z,20.59
2022-09-14T11:10:06.715Z,20.62
2022-09-14T11:20:25.791Z,20.57
2022-09-14T11:30:39.732Z,20.92
2022-09-14T11:40:48.328Z,20.81
2022-09-14T11:51:01.134Z,20.70
2022-09-14T12:01:28.849Z,20.60
2022-09-14T12:11:37.152Z,20.62
2022-09-14T12:21:43.634Z,21.18
2022-09-14T12:32:23.249Z,21.50
2022-09-14T12:42:32.201Z,21.63
2022-09-14T12:52:46.064Z,21.39
2022-09-14T13:03:07.053Z,21.20
2022-09-14T13:13:26.938Z,21.15
2022-09-14T13:23:37.907Z,20.94
2022-09-14T13:33:50.015Z,20.71
2022-09-14T13:43:58.003Z,20.62
2022-09-14T13:54:17.511Z,20.66
2022-09-14T14:04:28.398Z,20.65
2022-09-14T14:14:34.204Z,20.31
2022-09-14T14:25:02.048Z,19.87
2022-09-14T14:35:15.660Z,19.96
2022-09-14T14:45:26.470Z,19.97
2022-09-14T14:55:33.167Z,19.92
2022-09-14T15:05:42.233Z,19.82
2022-09-14T15:15:48.034Z,19.66
2022-09-14T15:25:55.059Z,19.81
2022-09-14T15:36:01.270Z,19.66
2022-09-14T15:46:07.105Z,19.49
2022-09-14T15:56:14.308Z,19.17
2022-09-14T16:06:19.898Z,18.82
2022-09-14T16:16:26.042Z,18.51
2022-09-14T16:26:33.912Z,18.21
2022-09-14T16:36:41.780Z,18.00
2022-09-14T16:46:48.827Z,17.75
2022-09-14T16:56:57.078Z,17.56
2022-09-14T17:07:02.900Z,17.36
2022-09-14T17:17:08.975Z,17.16
2022-09-14T17:27:14.625Z,16.90
2022-09-14T17:37:20.325Z,16.64
2022-09-14T17:47:26.548Z,16.42
2022-09-14T17:57:32.141Z,16.25
2022-09-14T18:07:37.937Z,16.07
2022-09-14T18:17:44.994Z,15.94
2022-09-14T18:27:50.778Z,15.79
2022-09-14T18:37:56.991Z,15.63
2022-09-14T18:48:03.509Z,15.51
2022-09-14T18:58:09.549Z,15.39
2022-09-14T19:08:15.220Z,15.32
2022-09-14T19:18:21.031Z,15.22
2022-09-14T19:28:26.809Z,15.13
2022-09-14T19:38:32.831Z,15.10
2022-09-14T19:48:39.159Z,15.08
2022-09-14T19:58:46.868Z,15.07
2022-09-14T20:08:54.555Z,15.08
2022-09-14T20:19:06.082Z,15.06
2022-09-14T20:29:11.726Z,15.03
2022-09-14T20:39:17.846Z,15.06
2022-09-14T20:49:24.659Z,15.04
2022-09-14T20:59:30.622Z,14.99
2022-09-14T21:09:37.209Z,15.00
2022-09-14T21:19:43.001Z,15.01
2022-09-14T21:29:50.417Z,14.97
2022-09-14T21:39:57.774Z,14.93
2022-09-14T21:50:03.657Z,14.96
2022-09-14T22:00:12.553Z,15.01
2022-09-14T22:10:19.429Z,15.01
2022-09-14T22:20:25.172Z,15.01
2022-09-14T22:30:30.833Z,15.01
2022-09-14T22:40:36.664Z,15.00
2022-09-14T22:50:43.977Z,15.01
2022-09-14T23:00:50.055Z,14.97
2022-09-14T23:10:56.170Z,14.96
2022-09-14T23:21:05.437Z,14.98
2022-09-14T23:31:11.157Z,14.92
2022-09-14T23:41:16.952Z,14.81
2022-09-14T23:51:22.756Z,14.77
